createdAt,value
2018-07-17T00:00:11.354Z,60.65
2018-07-17T00:01:11.310Z,60.75
2018-07-17T00:02:11.256Z,61.13
2018-07-17T00:03:11.424Z,60.84
2018-07-17T00:04:11.167Z,61.32
2018-07-17T00:05:11.125Z,61.90
2018-07-17T00:06:11.075Z,62.09
2018-07-17T00:07:11.038Z,61.90
2018-07-17T00:08:10.988Z,62.29
2018-07-17T00:09:10.941Z,61.90
2018-07-17T00:10:10.908Z,61.80
2018-07-17T00:11:10.852Z,61.90
2018-07-17T00:12:10.814Z,61.61
2018-07-17T00:13:10.837Z,61.80
2018-07-17T00:14:10.716Z,62.35
2018-07-17T00:15:10.669Z,62.16
2018-07-17T00:16:10.622Z,62.35
2018-07-17T00:17:10.577Z,62.35
2018-07-17T00:18:10.529Z,62.54
2018-07-17T00:19:10.494Z,63.22
2018-07-17T00:20:10.436Z,63.02
2018-07-17T00:21:10.411Z,63.12
2018-07-17T00:22:10.348Z,63.22
2018-07-17T00:23:10.301Z,63.41
2018-07-17T00:24:10.264Z,63.02
2018-07-17T00:25:10.227Z,62.35
2018-07-17T00:26:10.167Z,62.35
2018-07-17T00:27:10.125Z,62.54
2018-07-17T00:28:10.079Z,63.02
2018-07-17T00:29:10.031Z,63.31
2018-07-17T00:30:09.980Z,63.12
2018-07-17T00:31:09.930Z,63.22
2018-07-17T00:32:09.893Z,63.51
2018-07-17T00:33:09.830Z,63.02
2018-07-17T00:34:09.804Z,63.31
2018-07-17T00:35:09.760Z,63.60
2018-07-17T00:36:09.710Z,62.54
2018-07-17T00:37:09.661Z,63.22
2018-07-17T00:38:09.609Z,63.02
2018-07-17T00:39:09.568Z,63.12
2018-07-17T00:40:09.524Z,63.12
2018-07-17T00:41:09.478Z,62.64
2018-07-17T00:42:09.429Z,62.64
2018-07-17T00:43:09.386Z,62.45
2018-07-17T00:44:09.351Z,62.93
2018-07-17T00:45:09.305Z,62.54
2018-07-17T00:46:09.253Z,62.74
2018-07-17T00:47:09.223Z,63.12
2018-07-17T00:48:09.167Z,63.02
2018-07-17T00:49:09.115Z,62.93
2018-07-17T00:50:09.076Z,63.79
2018-07-17T00:51:09.031Z,63.99
2018-07-17T00:52:08.963Z,63.12
2018-07-17T00:53:08.932Z,63.31
2018-07-17T00:54:08.935Z,63.31
2018-07-17T00:55:08.847Z,63.41
2018-07-17T00:56:08.802Z,63.51
2018-07-17T00:57:08.756Z,63.67
2018-07-17T00:58:08.704Z,63.70
2018-07-17T00:59:08.665Z,63.79
2018-07-17T01:00:08.624Z,63.89
2018-07-17T01:01:08.621Z,63.60
2018-07-17T01:02:08.525Z,63.79
2018-07-17T01:03:08.489Z,63.41
2018-07-17T01:04:08.423Z,63.89
2018-07-17T01:05:08.390Z,63.41
2018-07-17T01:06:08.341Z,63.02
2018-07-17T01:07:08.299Z,63.12
2018-07-17T01:08:08.258Z,62.74
2018-07-17T01:09:08.216Z,63.31
2018-07-17T01:10:08.157Z,63.22
2018-07-17T01:11:08.114Z,63.41
2018-07-17T01:12:08.062Z,63.67
2018-07-17T01:13:08.019Z,63.95
2018-07-17T01:14:07.969Z,63.57
2018-07-17T01:15:07.928Z,63.70
2018-07-17T01:16:07.876Z,64.25
2018-07-17T01:17:07.839Z,64.34
2018-07-17T01:18:07.807Z,64.92
2018-07-17T01:19:07.746Z,64.63
2018-07-17T01:20:07.696Z,64.34
2018-07-17T01:21:07.636Z,64.92
2018-07-17T01:22:07.595Z,64.34
2018-07-17T01:23:07.560Z,64.34
2018-07-17T01:24:07.522Z,64.82
2018-07-17T01:25:07.469Z,64.34
2018-07-17T01:26:07.430Z,64.53
2018-07-17T01:27:07.384Z,64.92
2018-07-17T01:28:07.332Z,64.92
2018-07-17T01:29:07.299Z,64.53
2018-07-17T01:30:07.247Z,64.53
2018-07-17T01:31:07.203Z,64.05
2018-07-17T01:32:07.155Z,63.95
2018-07-17T01:33:07.093Z,64.05
2018-07-17T01:34:07.053Z,64.63
2018-07-17T01:35:07.016Z,65.11
2018-07-17T01:36:06.966Z,64.82
2018-07-17T01:37:06.919Z,64.92
2018-07-17T01:38:06.880Z,64.73
2018-07-17T01:39:06.827Z,64.73
2018-07-17T01:40:06.792Z,64.73
2018-07-17T01:41:06.743Z,64.82
2018-07-17T01:42:06.693Z,65.01
2018-07-17T01:43:06.706Z,64.53
2018-07-17T01:44:06.603Z,64.25
2018-07-17T01:45:06.558Z,64.28
2018-07-17T01:46:06.508Z,64.43
2018-07-17T01:47:06.469Z,64.53
2018-07-17T01:48:06.418Z,65.20
2018-07-17T01:49:06.375Z,64.92
2018-07-17T01:50:06.333Z,64.53
2018-07-17T01:51:06.283Z,64.53
2018-07-17T01:52:06.242Z,64.63
2018-07-17T01:53:06.190Z,64.53
2018-07-17T01:54:06.134Z,65.50
2018-07-17T01:55:06.096Z,65.20
2018-07-17T01:56:06.057Z,65.20
2018-07-17T01:57:06.006Z,65.11
2018-07-17T01:58:05.959Z,65.11
2018-07-17T01:59:05.927Z,65.30
2018-07-17T02:00:05.883Z,65.78
2018-07-17T02:01:05.842Z,65.88
2018-07-17T02:02:05.776Z,65.97
2018-07-17T02:03:05.731Z,66.04
2018-07-17T02:04:05.685Z,66.23
2018-07-17T02:05:05.625Z,65.94
2018-07-17T02:06:05.586Z,65.94
2018-07-17T02:07:05.552Z,66.17
2018-07-17T02:08:05.500Z,66.07
2018-07-17T02:09:05.475Z,66.42
2018-07-17T02:10:05.415Z,66.42
2018-07-17T02:11:05.365Z,66.52
2018-07-17T02:12:05.315Z,66.61
2018-07-17T02:13:05.273Z,66.42
2018-07-17T02:14:05.231Z,66.52
2018-07-17T02:15:05.186Z,66.71
2018-07-17T02:16:05.135Z,67.68
2018-07-17T02:17:05.093Z,68.44
2018-07-17T02:18:05.049Z,68.83
2018-07-17T02:19:05.001Z,68.92
2018-07-17T02:20:04.959Z,68.63
2018-07-17T02:21:04.908Z,68.35
2018-07-17T02:22:04.859Z,68.25
2018-07-17T02:23:04.814Z,67.77
2018-07-17T02:24:04.764Z,68.35
2018-07-17T02:25:04.718Z,67.68
2018-07-17T02:26:04.686Z,67.68
2018-07-17T02:27:04.637Z,67.68
2018-07-17T02:28:04.580Z,68.15
2018-07-17T02:29:04.537Z,67.86
2018-07-17T02:30:04.493Z,67.68
2018-07-17T02:31:04.430Z,67.86
2018-07-17T02:32:04.402Z,68.92
2018-07-17T02:33:04.357Z,68.54
2018-07-17T02:34:04.304Z,68.83
2018-07-17T02:35:04.260Z,68.92
2018-07-17T02:36:04.208Z,68.54
2018-07-17T02:37:04.167Z,68.83
2018-07-17T02:38:04.122Z,69.21
2018-07-17T02:39:04.063Z,69.60
2018-07-17T02:40:04.030Z,69.37
2018-07-17T02:41:03.978Z,69.75
2018-07-17T02:42:03.943Z,70.23
2018-07-17T02:43:03.894Z,70.43
2018-07-17T02:44:03.852Z,70.14
2018-07-17T02:45:03.801Z,70.43
2018-07-17T02:46:03.742Z,70.62
2018-07-17T02:47:03.702Z,70.90
2018-07-17T02:48:03.677Z,70.90
2018-07-17T02:49:03.617Z,70.62
2018-07-17T02:50:03.571Z,71.48
2018-07-17T02:51:03.517Z,71.29
2018-07-17T02:52:03.477Z,71.39
2018-07-17T02:53:03.438Z,71.19
2018-07-17T02:54:03.390Z,71.23
2018-07-17T02:55:03.332Z,71.58
2018-07-17T02:56:03.297Z,71.58
2018-07-17T02:57:03.261Z,71.29
2018-07-17T02:58:03.203Z,72.06
2018-07-17T02:59:03.137Z,71.87
2018-07-17T03:00:03.109Z,72.16
2018-07-17T03:01:03.070Z,72.34
2018-07-17T03:02:03.039Z,73.02
2018-07-17T03:03:02.975Z,73.21
2018-07-17T03:04:02.921Z,72.92
2018-07-17T03:05:02.881Z,73.79
2018-07-17T03:06:02.866Z,74.08
2018-07-17T03:07:02.799Z,74.13
2018-07-17T03:08:02.744Z,74.46
2018-07-17T03:09:02.688Z,74.33
2018-07-17T03:10:02.645Z,74.90
2018-07-17T03:11:02.606Z,74.52
2018-07-17T03:12:02.558Z,74.55
2018-07-17T03:13:02.501Z,74.85
2018-07-17T03:14:02.463Z,75.71
2018-07-17T03:15:02.426Z,75.62
2018-07-17T03:16:02.374Z,75.48
2018-07-17T03:17:02.328Z,75.52
2018-07-17T03:18:02.275Z,75.48
2018-07-17T03:19:02.232Z,75.38
2018-07-17T03:20:02.189Z,75.96
2018-07-17T03:21:02.125Z,76.25
2018-07-17T03:22:02.097Z,76.92
2018-07-17T03:23:02.058Z,77.01
2018-07-17T03:24:01.998Z,77.11
2018-07-17T03:25:01.952Z,77.40
2018-07-17T03:26:01.906Z,77.40
2018-07-17T03:27:01.849Z,77.73
2018-07-17T03:28:01.829Z,78.17
2018-07-17T03:29:01.768Z,78.17
2018-07-17T03:30:01.728Z,78.55
2018-07-17T03:31:01.681Z,79.03
2018-07-17T03:32:01.632Z,78.27
2018-07-17T03:33:01.586Z,78.65
2018-07-17T03:34:01.520Z,78.45
2018-07-17T03:35:01.498Z,78.27
2018-07-17T03:36:01.449Z,77.98
2018-07-17T03:37:01.411Z,78.45
2018-07-17T03:38:01.353Z,78.36
2018-07-17T03:39:01.304Z,78.17
2018-07-17T03:40:01.263Z,78.84
2018-07-17T03:41:01.216Z,79.13
2018-07-17T03:42:01.174Z,78.65
2018-07-17T03:43:01.122Z,78.84
2018-07-17T03:44:01.082Z,79.80
2018-07-17T03:45:01.045Z,80.38
2018-07-17T03:46:00.986Z,80.28
2018-07-17T03:47:00.942Z,79.99
2018-07-17T03:48:00.892Z,80.09
2018-07-17T03:49:00.823Z,80.38
2018-07-17T03:50:00.806Z,80.19
2018-07-17T03:51:00.751Z,80.38
2018-07-17T03:52:00.704Z,79.99
2018-07-17T03:53:00.658Z,80.28
2018-07-17T03:54:00.613Z,80.19
2018-07-17T03:55:00.567Z,80.47
2018-07-17T03:56:00.521Z,80.66
2018-07-17T03:57:00.467Z,80.96
2018-07-17T03:58:00.423Z,80.38
2018-07-17T03:59:00.374Z,80.96
2018-07-17T04:00:00.334Z,81.15
2018-07-17T04:01:00.286Z,81.34
2018-07-17T04:02:00.241Z,82.01
2018-07-17T04:03:00.228Z,82.01
2018-07-17T04:04:00.136Z,82.30
2018-07-17T04:05:00.095Z,82.40
2018-07-17T04:06:00.043Z,82.49
2018-07-17T04:07:00.023Z,82.68
2018-07-17T04:07:59.949Z,82.20
2018-07-17T04:08:59.898Z,82.40
2018-07-17T04:09:59.873Z,82.10
2018-07-17T04:10:59.831Z,82.49
2018-07-17T04:11:59.779Z,82.59
2018-07-17T04:12:59.735Z,82.87
2018-07-17T04:13:59.686Z,82.87
2018-07-17T04:14:59.629Z,82.97
2018-07-17T04:15:59.587Z,83.26
2018-07-17T04:16:59.549Z,83.26
2018-07-17T04:17:59.501Z,83.54
2018-07-17T04:18:59.445Z,83.54
2018-07-17T04:19:59.414Z,83.54
2018-07-17T04:20:59.357Z,83.45
2018-07-17T04:21:59.306Z,83.84
2018-07-17T04:22:59.264Z,84.80
2018-07-17T04:23:59.217Z,84.95
2018-07-17T04:24:59.176Z,85.04
2018-07-17T04:25:59.129Z,85.14
2018-07-17T04:26:59.077Z,84.80
2018-07-17T04:27:59.025Z,84.70
2018-07-17T04:28:58.976Z,85.28
2018-07-17T04:29:58.942Z,85.14
2018-07-17T04:30:58.900Z,85.18
2018-07-17T04:31:58.847Z,85.47
2018-07-17T04:32:58.806Z,84.80
2018-07-17T04:33:58.759Z,84.99
2018-07-17T04:34:58.704Z,84.60
2018-07-17T04:35:58.652Z,84.22
2018-07-17T04:36:58.620Z,84.31
2018-07-17T04:37:58.562Z,84.60
2018-07-17T04:38:58.515Z,84.03
2018-07-17T04:39:58.489Z,84.51
2018-07-17T04:40:58.428Z,84.60
2018-07-17T04:41:58.391Z,84.80
2018-07-17T04:42:58.339Z,84.89
2018-07-17T04:43:58.307Z,85.18
2018-07-17T04:44:58.243Z,85.08
2018-07-17T04:45:58.202Z,85.18
2018-07-17T04:46:58.146Z,85.37
2018-07-17T04:47:58.090Z,85.18
2018-07-17T04:48:58.059Z,85.18
2018-07-17T04:49:58.031Z,85.08
2018-07-17T04:50:57.949Z,85.14
2018-07-17T04:51:57.913Z,85.14
2018-07-17T04:52:57.880Z,85.04
2018-07-17T04:53:57.827Z,85.52
2018-07-17T04:54:57.771Z,85.52
2018-07-17T04:55:57.737Z,85.71
2018-07-17T04:56:57.688Z,85.71
2018-07-17T04:57:57.638Z,85.81
2018-07-17T04:58:57.599Z,85.42
2018-07-17T04:59:57.542Z,85.71
2018-07-17T05:00:57.506Z,86.29
2018-07-17T05:01:57.582Z,86.38
2018-07-17T05:02:57.424Z,86.19
2018-07-17T05:03:57.346Z,86.38
2018-07-17T05:04:57.316Z,86.38
2018-07-17T05:05:57.257Z,86.48
2018-07-17T05:06:57.228Z,86.48
2018-07-17T05:07:57.174Z,86.48
2018-07-17T05:08:57.134Z,87.40
2018-07-17T05:09:57.092Z,88.45
2018-07-17T05:10:57.044Z,88.45
2018-07-17T05:11:56.992Z,88.65
2018-07-17T05:12:57.001Z,88.49
2018-07-17T05:13:56.889Z,88.26
2018-07-17T05:14:56.845Z,87.92
2018-07-17T05:15:56.809Z,87.63
2018-07-17T05:16:56.753Z,87.21
2018-07-17T05:17:56.725Z,87.82
2018-07-17T05:18:56.661Z,87.63
2018-07-17T05:19:56.621Z,87.49
2018-07-17T05:20:56.575Z,88.35
2018-07-17T05:21:56.574Z,88.65
2018-07-17T05:22:56.585Z,88.65
2018-07-17T05:23:56.428Z,89.03
2018-07-17T05:24:56.384Z,89.03
2018-07-17T05:25:56.338Z,88.84
2018-07-17T05:26:56.273Z,88.79
2018-07-17T05:27:56.242Z,88.17
2018-07-17T05:28:56.243Z,88.45
2018-07-17T05:29:56.157Z,88.07
2018-07-17T05:30:56.115Z,87.59
2018-07-17T05:31:56.043Z,87.88
2018-07-17T05:32:56.018Z,87.78
2018-07-17T05:33:55.968Z,87.73
2018-07-17T05:34:55.919Z,87.78
2018-07-17T05:35:55.874Z,87.54
2018-07-17T05:36:55.829Z,87.63
2018-07-17T05:37:55.776Z,87.05
2018-07-17T05:38:55.715Z,87.82
2018-07-17T05:39:55.692Z,87.49
2018-07-17T05:40:55.641Z,87.59
2018-07-17T05:41:55.584Z,87.98
2018-07-17T05:42:55.529Z,87.78
2018-07-17T05:43:55.502Z,87.88
2018-07-17T05:44:55.470Z,87.78
2018-07-17T05:45:55.396Z,88.07
2018-07-17T05:46:55.353Z,87.78
2018-07-17T05:47:55.321Z,88.26
2018-07-17T05:48:55.267Z,88.17
2018-07-17T05:49:55.204Z,88.17
2018-07-17T05:50:55.170Z,88.55
2018-07-17T05:51:55.169Z,88.35
2018-07-17T05:52:55.084Z,88.45
2018-07-17T05:53:55.041Z,88.55
2018-07-17T05:54:54.981Z,87.88
2018-07-17T05:55:54.924Z,87.88
2018-07-17T05:56:54.898Z,87.49
2018-07-17T05:57:54.848Z,87.78
2018-07-17T05:58:54.781Z,87.68
2018-07-17T05:59:54.751Z,87.59
2018-07-17T06:00:54.703Z,88.17
2018-07-17T06:01:54.647Z,88.26
2018-07-17T06:02:54.611Z,88.55
2018-07-17T06:03:54.566Z,88.35
2018-07-17T06:04:54.511Z,88.07
2018-07-17T06:05:54.465Z,87.68
2018-07-17T06:06:54.411Z,87.98
2018-07-17T06:07:54.391Z,87.78
2018-07-17T06:08:54.334Z,87.78
2018-07-17T06:09:54.307Z,87.78
2018-07-17T06:10:54.234Z,88.07
2018-07-17T06:11:54.179Z,88.07
2018-07-17T06:12:54.140Z,88.17
2018-07-17T06:13:54.095Z,87.68
2018-07-17T06:14:54.049Z,87.59
2018-07-17T06:15:54.012Z,87.68
2018-07-17T06:16:53.951Z,87.49
2018-07-17T06:17:53.895Z,88.65
2018-07-17T06:18:53.897Z,88.17
2018-07-17T06:19:53.849Z,88.45
2018-07-17T06:20:53.775Z,88.45
2018-07-17T06:21:53.728Z,88.26
2018-07-17T06:22:53.677Z,88.07
2018-07-17T06:23:53.612Z,88.45
2018-07-17T06:24:53.583Z,88.55
2018-07-17T06:25:53.540Z,88.74
2018-07-17T06:26:53.493Z,88.45
2018-07-17T06:27:53.445Z,88.45
2018-07-17T06:28:53.403Z,88.84
2018-07-17T06:29:53.349Z,88.84
2018-07-17T06:30:53.312Z,88.65
2018-07-17T06:31:53.246Z,88.35
2018-07-17T06:32:53.244Z,87.98
2018-07-17T06:33:53.161Z,88.17
2018-07-17T06:34:53.115Z,88.45
2018-07-17T06:35:53.071Z,88.07
2018-07-17T06:36:53.020Z,87.98
2018-07-17T06:37:52.977Z,88.17
2018-07-17T06:38:53.023Z,87.98
2018-07-17T06:39:52.881Z,88.07
2018-07-17T06:40:52.832Z,87.98
2018-07-17T06:41:52.773Z,87.98
2018-07-17T06:42:52.739Z,87.78
2018-07-17T06:43:52.694Z,88.45
2018-07-17T06:44:52.649Z,88.35
2018-07-17T06:45:52.592Z,88.12
2018-07-17T06:46:52.552Z,88.26
2018-07-17T06:47:52.505Z,88.51
2018-07-17T06:48:52.460Z,88.41
2018-07-17T06:49:52.410Z,88.22
2018-07-17T06:50:52.400Z,88.41
2018-07-17T06:51:52.327Z,88.70
2018-07-17T06:52:52.272Z,88.70
2018-07-17T06:53:52.221Z,88.22
2018-07-17T06:54:52.176Z,88.22
2018-07-17T06:55:52.122Z,88.70
2018-07-17T06:56:52.078Z,88.79
2018-07-17T06:57:52.036Z,89.08
2018-07-17T06:58:51.990Z,88.51
2018-07-17T06:59:51.945Z,88.31
2018-07-17T07:00:51.888Z,88.51
2018-07-17T07:01:51.848Z,88.12
2018-07-17T07:02:51.807Z,88.22
2018-07-17T07:03:51.764Z,88.02
2018-07-17T07:04:51.712Z,88.60
2018-07-17T07:05:51.649Z,88.79
2018-07-17T07:06:51.604Z,88.41
2018-07-17T07:07:51.569Z,88.51
2018-07-17T07:08:51.527Z,88.41
2018-07-17T07:09:51.479Z,88.79
2018-07-17T07:10:51.443Z,88.51
2018-07-17T07:11:51.388Z,88.02
2018-07-17T07:12:51.346Z,88.22
2018-07-17T07:13:51.279Z,88.12
2018-07-17T07:14:51.237Z,88.02
2018-07-17T07:15:51.190Z,88.51
2018-07-17T07:16:51.143Z,88.60
2018-07-17T07:17:51.097Z,88.89
2018-07-17T07:18:51.035Z,89.18
2018-07-17T07:19:51.008Z,88.98
2018-07-17T07:20:50.957Z,89.32
2018-07-17T07:21:50.915Z,89.94
2018-07-17T07:22:50.870Z,89.80
2018-07-17T07:23:50.803Z,90.14
2018-07-17T07:24:50.772Z,89.37
2018-07-17T07:25:50.722Z,89.32
2018-07-17T07:26:50.673Z,89.56
2018-07-17T07:27:50.634Z,89.37
2018-07-17T07:28:50.593Z,89.13
2018-07-17T07:29:50.532Z,89.04
2018-07-17T07:30:50.517Z,89.13
2018-07-17T07:31:50.445Z,89.90
2018-07-17T07:32:50.399Z,89.61
2018-07-17T07:33:50.339Z,90.09
2018-07-17T07:34:50.306Z,90.76
2018-07-17T07:35:50.252Z,90.76
2018-07-17T07:36:50.209Z,91.05
2018-07-17T07:37:50.152Z,90.67
2018-07-17T07:38:50.117Z,90.47
2018-07-17T07:39:50.076Z,90.00
2018-07-17T07:40:50.026Z,89.85
2018-07-17T07:41:49.977Z,89.80
2018-07-17T07:42:49.948Z,90.00
2018-07-17T07:43:49.874Z,90.28
2018-07-17T07:44:49.827Z,90.19
2018-07-17T07:45:49.788Z,90.00
2018-07-17T07:46:49.731Z,89.90
2018-07-17T07:47:49.694Z,89.71
2018-07-17T07:48:49.645Z,89.90
2018-07-17T07:49:49.601Z,90.47
2018-07-17T07:50:49.547Z,90.19
2018-07-17T07:51:49.498Z,90.00
2018-07-17T07:52:49.449Z,90.00
2018-07-17T07:53:49.409Z,89.80
2018-07-17T07:54:49.362Z,90.00
2018-07-17T07:55:49.327Z,90.76
2018-07-17T07:56:49.269Z,90.38
2018-07-17T07:57:49.217Z,90.57
2018-07-17T07:58:49.179Z,90.47
2018-07-17T07:59:49.120Z,90.86
2018-07-17T08:00:49.078Z,90.95
2018-07-17T08:01:49.027Z,90.43
2018-07-17T08:02:48.987Z,91.19
2018-07-17T08:03:49.006Z,90.95
2018-07-17T08:04:48.893Z,91.49
2018-07-17T08:05:48.845Z,91.43
2018-07-17T08:06:48.799Z,91.53
2018-07-17T08:07:48.732Z,91.24
2018-07-17T08:08:48.697Z,91.14
2018-07-17T08:09:48.656Z,90.76
2018-07-17T08:10:48.603Z,91.05
2018-07-17T08:11:48.650Z,91.05
2018-07-17T08:12:48.496Z,91.34
2018-07-17T08:13:48.447Z,91.43
2018-07-17T08:14:48.418Z,90.86
2018-07-17T08:15:48.380Z,90.95
2018-07-17T08:16:48.323Z,91.49
2018-07-17T08:17:48.277Z,90.76
2018-07-17T08:18:48.233Z,91.53
2018-07-17T08:19:48.186Z,91.67
2018-07-17T08:20:48.137Z,91.77
2018-07-17T08:21:48.087Z,91.39
2018-07-17T08:22:48.040Z,91.67
2018-07-17T08:23:48.000Z,91.29
2018-07-17T08:24:47.932Z,91.10
2018-07-17T08:25:47.898Z,91.77
2018-07-17T08:26:47.853Z,91.49
2018-07-17T08:27:47.797Z,91.77
2018-07-17T08:28:47.753Z,91.86
2018-07-17T08:29:47.822Z,91.96
2018-07-17T08:30:47.658Z,91.67
2018-07-17T08:31:47.617Z,91.96
2018-07-17T08:32:47.566Z,91.39
2018-07-17T08:33:47.518Z,92.25
2018-07-17T08:34:47.472Z,92.15
2018-07-17T08:35:47.470Z,92.25
2018-07-17T08:36:47.379Z,93.02
2018-07-17T08:37:47.335Z,92.92
2018-07-17T08:38:47.287Z,92.82
2018-07-17T08:39:47.239Z,92.92
2018-07-17T08:40:47.193Z,93.02
2018-07-17T08:41:47.139Z,92.63
2018-07-17T08:42:47.093Z,93.11
2018-07-17T08:43:47.061Z,93.40
2018-07-17T08:44:47.005Z,93.59
2018-07-17T08:45:46.949Z,92.82
2018-07-17T08:46:46.907Z,92.15
2018-07-17T08:47:46.862Z,92.73
2018-07-17T08:48:46.809Z,92.73
2018-07-17T08:49:46.747Z,92.54
2018-07-17T08:50:46.716Z,93.11
2018-07-17T08:51:46.648Z,93.49
2018-07-17T08:52:46.618Z,93.49
2018-07-17T08:53:46.572Z,93.21
2018-07-17T08:54:46.525Z,92.73
2018-07-17T08:55:46.482Z,92.44
2018-07-17T08:56:46.435Z,92.15
2018-07-17T08:57:46.382Z,92.92
2018-07-17T08:58:46.333Z,92.92
2018-07-17T08:59:46.301Z,92.82
2018-07-17T09:00:46.252Z,92.73
2018-07-17T09:01:46.189Z,92.35
2018-07-17T09:02:46.147Z,92.73
2018-07-17T09:03:46.101Z,92.82
2018-07-17T09:04:46.052Z,92.73
2018-07-17T09:05:46.019Z,92.92
2018-07-17T09:06:45.956Z,92.92
2018-07-17T09:07:45.917Z,92.15
2018-07-17T09:08:45.865Z,92.73
2018-07-17T09:09:45.810Z,91.58
2018-07-17T09:10:45.769Z,91.58
2018-07-17T09:11:45.736Z,91.49
2018-07-17T09:12:45.682Z,91.77
2018-07-17T09:13:45.624Z,91.58
2018-07-17T09:14:45.575Z,91.58
2018-07-17T09:15:45.529Z,91.86
2018-07-17T09:16:45.485Z,92.54
2018-07-17T09:17:45.432Z,92.25
2018-07-17T09:18:45.381Z,92.35
2018-07-17T09:19:45.342Z,92.63
2018-07-17T09:20:45.293Z,92.35
2018-07-17T09:21:45.249Z,92.25
2018-07-17T09:22:45.195Z,92.63
2018-07-17T09:23:45.159Z,92.73
2018-07-17T09:24:45.108Z,92.25
2018-07-17T09:25:45.056Z,92.73
2018-07-17T09:26:45.016Z,93.02
2018-07-17T09:27:44.965Z,93.59
2018-07-17T09:28:44.911Z,93.21
2018-07-17T09:29:44.870Z,93.02
2018-07-17T09:30:44.821Z,92.92
2018-07-17T09:31:44.776Z,92.54
2018-07-17T09:32:44.726Z,92.82
2018-07-17T09:33:44.743Z,92.82
2018-07-17T09:34:44.628Z,93.11
2018-07-17T09:35:44.583Z,93.21
2018-07-17T09:36:44.535Z,93.11
2018-07-17T09:37:44.488Z,93.21
2018-07-17T09:38:44.476Z,93.69
2018-07-17T09:39:44.391Z,93.40
2018-07-17T09:40:44.341Z,93.02
2018-07-17T09:41:44.291Z,92.92
2018-07-17T09:42:44.255Z,93.21
2018-07-17T09:43:44.206Z,93.21
2018-07-17T09:44:44.155Z,93.69
2018-07-17T09:45:44.094Z,93.21
2018-07-17T09:46:44.065Z,93.11
2018-07-17T09:47:44.004Z,93.02
2018-07-17T09:48:43.958Z,93.30
2018-07-17T09:49:43.917Z,93.49
2018-07-17T09:50:43.873Z,93.21
2018-07-17T09:51:43.828Z,93.02
2018-07-17T09:52:43.779Z,92.92
2018-07-17T09:53:43.726Z,92.92
2018-07-17T09:54:43.690Z,92.73
2018-07-17T09:55:43.631Z,92.54
2018-07-17T09:56:43.593Z,92.73
2018-07-17T09:57:43.539Z,92.73
2018-07-17T09:58:43.481Z,93.11
2018-07-17T09:59:43.440Z,93.78
2018-07-17T10:00:43.406Z,93.07
2018-07-17T10:01:43.350Z,93.54
2018-07-17T10:02:43.301Z,93.54
2018-07-17T10:03:43.265Z,93.30
2018-07-17T10:04:43.255Z,93.40
2018-07-17T10:05:43.155Z,93.59
2018-07-17T10:06:43.116Z,93.11
2018-07-17T10:07:43.070Z,93.40
2018-07-17T10:08:43.017Z,93.49
2018-07-17T10:09:42.968Z,93.07
2018-07-17T10:10:42.922Z,92.97
2018-07-17T10:11:42.891Z,93.02
2018-07-17T10:12:42.819Z,93.02
2018-07-17T10:13:42.781Z,93.40
2018-07-17T10:14:42.746Z,93.98
2018-07-17T10:15:42.691Z,93.78
2018-07-17T10:16:42.634Z,93.88
2018-07-17T10:17:42.597Z,94.26
2018-07-17T10:18:42.560Z,94.26
2018-07-17T10:19:42.507Z,94.07
2018-07-17T10:20:42.461Z,94.26
2018-07-17T10:21:42.412Z,94.07
2018-07-17T10:22:42.362Z,94.17
2018-07-17T10:23:42.306Z,94.17
2018-07-17T10:24:42.277Z,94.17
2018-07-17T10:25:42.225Z,93.98
2018-07-17T10:26:42.242Z,94.07
2018-07-17T10:27:42.134Z,94.45
2018-07-17T10:28:42.081Z,94.17
2018-07-17T10:29:42.045Z,94.35
2018-07-17T10:30:41.981Z,94.17
2018-07-17T10:31:41.925Z,94.07
2018-07-17T10:32:41.893Z,94.07
2018-07-17T10:33:41.850Z,94.35
2018-07-17T10:34:41.794Z,94.17
2018-07-17T10:35:41.743Z,94.21
2018-07-17T10:36:41.709Z,93.83
2018-07-17T10:37:41.657Z,93.26
2018-07-17T10:38:41.678Z,92.05
2018-07-17T10:39:41.566Z,91.62
2018-07-17T10:40:41.520Z,89.32
2018-07-17T10:41:41.482Z,88.59
2018-07-17T10:42:41.414Z,87.63
2018-07-17T10:43:41.397Z,86.14
2018-07-17T10:44:41.344Z,85.28
2018-07-17T10:45:41.306Z,84.17
2018-07-17T10:46:41.237Z,82.92
2018-07-17T10:47:41.223Z,82.67
2018-07-17T10:48:41.172Z,81.42
2018-07-17T10:49:41.129Z,80.50
2018-07-17T10:50:41.090Z,79.92
2018-07-17T10:51:41.057Z,79.35
2018-07-17T10:52:41.010Z,78.71
2018-07-17T10:53:40.959Z,77.59
2018-07-17T10:54:40.939Z,76.73
2018-07-17T10:55:40.899Z,76.18
2018-07-17T10:56:40.861Z,75.32
2018-07-17T10:57:40.828Z,74.26
2018-07-17T10:58:40.768Z,74.40
2018-07-17T10:59:40.741Z,73.53
2018-07-17T11:00:40.712Z,72.79
2018-07-17T11:01:40.668Z,72.21
2018-07-17T11:02:40.640Z,71.06
2018-07-17T11:03:40.596Z,70.67
2018-07-17T11:04:40.571Z,70.03
2018-07-17T11:05:40.525Z,69.26
2018-07-17T11:06:40.496Z,68.77
2018-07-17T11:07:40.463Z,68.91
2018-07-17T11:08:40.405Z,68.43
2018-07-17T11:09:40.394Z,68.81
2018-07-17T11:10:40.353Z,68.52
2018-07-17T11:11:40.316Z,67.85
2018-07-17T11:12:40.288Z,67.46
2018-07-17T11:13:40.250Z,67.94
2018-07-17T11:14:40.202Z,67.30
2018-07-17T11:15:40.183Z,67.40
2018-07-17T11:16:40.151Z,66.97
2018-07-17T11:17:40.114Z,66.63
2018-07-17T11:18:40.059Z,66.11
2018-07-17T11:19:40.049Z,66.69
2018-07-17T11:20:40.005Z,67.94
2018-07-17T11:21:39.961Z,67.65
2018-07-17T11:22:39.948Z,67.85
2018-07-17T11:23:39.884Z,68.29
2018-07-17T11:24:39.846Z,69.07
2018-07-17T11:25:39.811Z,69.80
2018-07-17T11:26:39.792Z,70.76
2018-07-17T11:27:39.743Z,72.18
2018-07-17T11:28:39.697Z,72.75
2018-07-17T11:29:39.667Z,72.37
2018-07-17T11:30:39.624Z,72.75
2018-07-17T11:31:39.584Z,73.39
2018-07-17T11:32:39.540Z,73.88
2018-07-17T11:33:39.507Z,74.07
2018-07-17T11:34:39.458Z,74.84
2018-07-17T11:35:39.418Z,75.28
2018-07-17T11:36:39.382Z,75.86
2018-07-17T11:37:39.344Z,75.57
2018-07-17T11:38:39.320Z,75.57
2018-07-17T11:39:39.249Z,75.76
2018-07-17T11:40:39.203Z,75.38
2018-07-17T11:41:39.149Z,75.67
2018-07-17T11:42:39.139Z,75.86
2018-07-17T11:43:39.081Z,76.34
2018-07-17T11:44:39.041Z,76.34
2018-07-17T11:45:38.993Z,76.53
2018-07-17T11:46:38.956Z,76.15
2018-07-17T11:47:38.892Z,75.96
2018-07-17T11:48:38.863Z,75.86
2018-07-17T11:49:38.833Z,75.57
2018-07-17T11:50:38.768Z,75.96
2018-07-17T11:51:38.740Z,75.76
2018-07-17T11:52:38.702Z,75.67
2018-07-17T11:53:38.708Z,76.15
2018-07-17T11:54:38.602Z,76.53
2018-07-17T11:55:38.560Z,76.15
2018-07-17T11:56:38.518Z,76.25
2018-07-17T11:57:38.466Z,75.96
2018-07-17T11:58:38.424Z,75.38
2018-07-17T11:59:38.395Z,76.25
2018-07-17T12:00:38.337Z,75.48
2018-07-17T12:01:38.290Z,75.57
2018-07-17T12:02:38.237Z,76.06
2018-07-17T12:03:38.204Z,76.53
2018-07-17T12:04:38.162Z,75.76
2018-07-17T12:05:38.139Z,75.63
2018-07-17T12:06:38.067Z,75.73
2018-07-17T12:07:38.033Z,75.73
2018-07-17T12:08:37.996Z,75.63
2018-07-17T12:09:37.934Z,75.28
2018-07-17T12:10:37.901Z,75.19
2018-07-17T12:11:37.861Z,74.80
2018-07-17T12:12:37.863Z,74.71
2018-07-17T12:13:37.758Z,74.51
2018-07-17T12:14:37.719Z,74.80
2018-07-17T12:15:37.671Z,75.09
2018-07-17T12:16:37.628Z,75.09
2018-07-17T12:17:37.587Z,75.38
2018-07-17T12:18:37.532Z,74.61
2018-07-17T12:19:37.495Z,74.41
2018-07-17T12:20:37.691Z,74.13
2018-07-17T12:21:37.389Z,74.32
2018-07-17T12:22:37.360Z,74.03
2018-07-17T12:23:37.318Z,74.71
2018-07-17T12:24:37.267Z,74.51
2018-07-17T12:25:37.242Z,74.03
2018-07-17T12:26:37.181Z,74.13
2018-07-17T12:27:37.148Z,74.51
2018-07-17T12:28:37.110Z,74.32
2018-07-17T12:29:37.058Z,74.41
2018-07-17T12:30:37.008Z,73.55
2018-07-17T12:31:36.965Z,73.84
2018-07-17T12:32:36.923Z,73.20
2018-07-17T12:33:36.866Z,73.07
2018-07-17T12:34:36.837Z,73.36
2018-07-17T12:35:36.792Z,73.46
2018-07-17T12:36:36.739Z,72.81
2018-07-17T12:37:36.695Z,73.01
2018-07-17T12:38:36.648Z,73.01
2018-07-17T12:39:36.615Z,72.43
2018-07-17T12:40:36.581Z,72.05
2018-07-17T12:41:36.525Z,72.05
2018-07-17T12:42:36.481Z,72.14
2018-07-17T12:43:36.431Z,72.81
2018-07-17T12:44:36.389Z,72.14
2018-07-17T12:45:36.344Z,71.66
2018-07-17T12:46:36.325Z,71.18
2018-07-17T12:47:36.264Z,71.66
2018-07-17T12:48:36.210Z,71.47
2018-07-17T12:49:36.184Z,71.56
2018-07-17T12:50:36.109Z,71.28
2018-07-17T12:51:36.072Z,71.37